Latest Weather Observations for Casterton

IDV60801

Issued at 3:02 pm EDT Monday 23 January 2017 (issued every 30 minutes, with the page automatically refreshed every 10 minutes)

About weather observations | Map of weather stations | Latest weather observations for VIC | Other Formats
Station Details ID: 090182 Name: CASTERTON Lat: -37.58 Lon: 141.33 Height: 130.6 m
Data from the previous 72 hours. | See also: Recent months at Casterton
Date/Time
EDT
Temp
°C
App
Temp
°C
Dew
Point
°C
Rel
Hum
%
Delta-T
°C
Wind Press
QNH
hPa
Press
MSL
hPa
Rain since
9am
mm
Dir  Spd
km/h
Gust
km/h
Spd
kts
Gust
kts
23/02:30pm 28.9 25.3 13.2 38 9.4 WSW 24 35 13 19 1004.0 1003.5 0.0
23/02:00pm 30.9 28.1 13.2 34 10.7 WSW 20 32 11 17 1003.6 1003.2 0.0
23/01:30pm 31.9 29.7 13.2 32 11.3 W 17 26 9 14 1003.5 1003.1 0.0
23/01:00pm 32.6 30.2 12.8 30 11.9 WNW 17 28 9 15 1003.7 1003.3 0.0
23/12:30pm 32.0 28.1 10.7 27 12.4 NW 22 32 12 17 1004.1 1003.6 0.0
23/12:00pm 31.0 28.5 12.4 32 11.1 WNW 17 26 9 14 1004.5 1004.0 0.0
23/11:30am 29.9 26.5 10.5 30 11.1 NW 19 28 10 15 1004.7 1004.2 0.0
23/11:00am 29.8 26.9 10.9 31 10.9 NNW 17 26 9 14 1004.8 1004.3 0.0
23/10:30am 29.3 27.0 10.4 31 10.8 NNW 13 19 7 10 1004.9 1004.4 0.0
23/10:00am 29.2 26.9 10.3 31 10.8 NNW 13 19 7 10 1004.9 1004.4 0.0
23/09:30am 28.2 25.8 9.9 32 10.3 N 13 17 7 9 1005.1 1004.6 0.0
23/09:00am 26.7 25.1 11.6 39 8.7 NNE 11 15 6 8 1005.1 1004.6 0.0
23/08:30am 23.9 23.9 13.7 53 6.0 NE 6 7 3 4 1005.3 1004.8 0.0
23/08:00am 20.9 22.2 14.1 65 4.0 CALM 0 0 0 0 1005.3 1004.8 0.0
23/07:30am 19.3 19.2 13.3 68 3.4 NE 6 7 3 4 1005.0 1004.5 0.0
23/07:00am 19.1 18.7 13.1 68 3.4 NE 7 9 4 5 1005.0 1004.5 0.0
23/06:30am 18.8 19.7 13.0 69 3.3 CALM 0 0 0 0 1005.0 1004.5 0.0
23/06:00am 18.8 18.3 12.8 68 3.4 NE 7 7 4 4 1005.2 1004.7 0.0
23/05:30am 18.7 17.8 12.7 68 3.4 ENE 9 11 5 6 1005.1 1004.6 0.0
23/05:00am 18.9 18.4 12.6 67 3.6 ENE 7 9 4 5 1005.5 1005.0 0.0
23/04:30am 18.7 18.2 12.0 65 3.7 ENE 6 7 3 4 1005.6 1005.1 0.0
23/04:00am 19.4 18.6 11.7 61 4.3 ENE 7 9 4 5 1006.1 1005.7 0.0
23/03:30am 19.8 18.7 11.8 60 4.5 E 9 11 5 6 1006.5 1006.1 0.0
23/03:00am 19.7 19.0 11.5 59 4.6 E 6 9 3 5 1006.8 1006.4 0.0
23/02:30am 19.5 18.6 11.3 59 4.5 SSE 7 9 4 5 1007.2 1006.8 0.0
23/02:00am 19.8 18.9 10.8 56 4.9 E 6 9 3 5 1007.4 1007.0 0.0
23/01:30am 19.8 18.6 10.2 54 5.2 ESE 7 9 4 5 1007.8 1007.4 0.0
23/01:00am 20.1 18.4 9.9 52 5.5 ENE 9 13 5 7 1007.7 1007.3 0.0
23/12:30am 20.7 18.6 9.9 50 5.8 E 11 17 6 9 1007.9 1007.5 0.0
23/12:00am 20.3 19.4 11.2 56 5.0 SE 7 13 4 7 1008.6 1008.2 0.0
 
Date/Time
EDT
Temp
°C
App
Temp
°C
Dew
Point
°C
Rel
Hum
%
Delta-T
°C
Wind Press
QNH
hPa
Press
MSL
hPa
Rain since
9am
mm
Dir  Spd
km/h
Gust
km/h
Spd
kts
Gust
kts
22/11:30pm 20.0 19.4 12.3 61 4.3 SSE 7 9 4 5 1009.2 1008.8 0.0
22/11:00pm 20.3 19.9 13.0 63 4.2 SE 7 9 4 5 1009.6 1009.2 0.0
22/10:30pm 21.2 20.5 12.1 56 5.1 SSE 7 11 4 6 1009.9 1009.5 0.0
22/10:00pm 22.2 21.2 12.2 53 5.7 SSE 9 20 5 11 1009.9 1009.5 0.0
22/09:30pm 23.0 21.6 12.3 51 6.1 SSE 11 15 6 8 1010.1 1009.7 0.0
22/09:00pm 23.9 21.8 12.5 49 6.6 SSE 15 20 8 11 1009.7 1009.3 0.0
22/08:30pm 25.3 24.3 13.5 48 7.0 SSE 11 17 6 9 1009.4 1009.0 0.0
22/08:00pm 26.6 24.0 13.3 43 7.9 SSE 19 28 10 15 1009.2 1008.8 0.0
22/07:54pm 26.9 24.8 13.6 44 7.9 SSE 17 24 9 13 1009.3 1008.9 0.0
22/07:30pm 31.9 31.0 10.6 27 12.3 W 6 9 3 5 1008.9 1008.5 0.0
22/07:00pm 31.0 30.1 9.3 26 12.3 NNE 4 9 2 5 1008.6 1008.2 0.0
22/06:30pm 30.8 29.6 9.6 27 12.0 NNE 6 11 3 6 1008.8 1008.4 0.0
22/06:00pm 31.4 29.1 9.0 25 12.6 NNE 11 17 6 9 1009.1 1008.7 0.0
22/05:30pm 31.9 29.7 9.4 25 12.8 N 11 22 6 12 1009.5 1009.1 0.0
22/05:00pm 31.6 29.0 9.2 25 12.7 N 13 20 7 11 1009.9 1009.5 0.0
22/04:30pm 31.4 29.3 8.4 24 12.8 N 9 20 5 11 1010.2 1009.8 0.0
22/04:00pm 31.8 29.7 9.9 26 12.5 N 11 17 6 9 1010.5 1010.1 0.0
22/03:30pm 30.7 27.6 9.0 26 12.2 N 15 26 8 14 1011.0 1010.6 0.0
22/03:00pm 31.4 29.9 10.7 28 12.0 W 9 28 5 15 1011.3 1010.9 0.0
22/02:30pm 30.6 28.2 10.0 28 11.7 N 13 26 7 14 1011.7 1011.3 0.0
22/02:00pm 30.3 28.0 10.3 29 11.4 W 13 20 7 11 1012.3 1011.8 0.0
22/01:30pm 29.7 27.7 10.3 30 11.1 WSW 11 20 6 11 1012.6 1012.1 0.0
22/01:00pm 28.9 28.0 11.5 34 10.1 NW 7 15 4 8 1013.2 1012.8 0.0
22/12:30pm 28.6 27.4 11.6 34 9.9 NW 9 17 5 9 1013.2 1012.8 0.0
22/12:00pm 27.5 26.3 11.5 37 9.2 W 9 19 5 10 1013.4 1013.0 0.0
22/11:30am 27.4 27.8 12.6 40 8.7 NNW 2 9 1 5 1013.6 1013.2 0.0
22/11:00am 25.8 25.7 14.0 48 7.0 NW 7 15 4 8 1013.8 1013.4 0.0
22/10:30am 23.6 22.8 12.9 51 6.2 NNE 9 13 5 7 1013.9 1013.5 0.0
22/10:00am 21.9 21.4 12.7 56 5.3 NE 7 9 4 5 1014.1 1013.7 0.0
22/09:30am 19.4 18.7 11.9 62 4.2 NE 7 11 4 6 1014.3 1013.9 0.0
22/09:00am 17.2 16.6 12.3 73 2.7 NE 7 9 4 5 1014.5 1014.1 0.0
22/08:30am 16.2 15.6 12.4 78 2.1 ENE 7 9 4 5 1014.4 1014.0 0.0
22/08:00am 14.5 12.9 11.5 82 1.6 E 11 13 6 7 1014.2 1013.8 0.0
22/07:30am 13.1 12.2 11.3 89 1.0 ENE 7 11 4 6 1014.0 1013.6 0.0
22/07:00am 11.8 10.4 10.9 94 0.5 E 9 11 5 6 1014.0 1013.6 0.0
22/06:30am 11.1 9.5 10.2 94 0.5 ESE 9 11 5 6 1014.0 1013.6 0.0
22/06:00am 11.5 10.4 10.6 94 0.5 ESE 7 9 4 5 1014.3 1013.9 0.0
22/05:30am 11.9 10.1 10.8 93 0.6 E 11 13 6 7 1014.1 1013.7 0.0
22/05:00am 11.9 10.1 10.8 93 0.6 E 11 15 6 8 1014.1 1013.7 0.0
22/04:30am 11.9 10.5 10.8 93 0.6 ENE 9 15 5 8 1014.0 1013.6 0.0
22/04:00am 12.4 10.3 11.1 92 0.7 E 13 17 7 9 1014.3 1013.9 0.0
22/03:30am 12.8 10.7 11.2 90 0.8 E 13 17 7 9 1014.7 1014.3 0.0
22/03:00am 13.0 10.9 11.2 89 1.0 E 13 19 7 10 1014.7 1014.3 0.0
22/02:30am 13.1 11.0 11.3 89 1.0 E 13 17 7 9 1015.0 1014.6 0.0
22/02:00am 13.0 11.7 11.1 88 1.0 E 9 13 5 7 1015.3 1014.9 0.0
22/01:30am 13.6 11.9 11.3 86 1.2 ESE 11 15 6 8 1015.4 1015.0 0.0
22/01:00am 13.8 12.2 11.7 87 1.1 ESE 11 15 6 8 1015.8 1015.4 0.0
22/12:30am 13.5 12.3 11.7 89 1.0 SE 9 13 5 7 1016.2 1015.8 0.0
22/12:00am 13.3 12.6 11.5 89 1.0 ESE 6 6 3 3 1016.2 1015.8 0.0
 
Date/Time
EDT
Temp
°C
App
Temp
°C
Dew
Point
°C
Rel
Hum
%
Delta-T
°C
Wind Press
QNH
hPa
Press
MSL
hPa
Rain since
9am
mm
Dir  Spd
km/h
Gust
km/h
Spd
kts
Gust
kts
21/11:30pm 14.0 13.5 11.9 87 1.1 SE 6 7 3 4 1016.5 1016.1 0.0
21/11:00pm 14.7 14.4 12.6 87 1.2 SSE 6 7 3 4 1016.5 1016.1 0.0
21/10:30pm 14.9 14.4 12.2 84 1.5 S 6 9 3 5 1016.5 1016.1 0.0
21/10:00pm 15.8 14.5 12.4 80 1.9 S 11 15 6 8 1016.0 1015.6 0.0
21/09:30pm 17.0 14.9 12.5 75 2.5 S 15 20 8 11 1015.8 1015.4 0.0
21/09:00pm 18.1 15.7 12.5 70 3.1 SSW 17 26 9 14 1015.6 1015.2 0.0
21/08:30pm 19.4 16.7 12.9 66 3.7 SSW 19 26 10 14 1015.3 1014.9 0.0
21/08:00pm 20.9 18.1 13.1 61 4.5 SSW 20 28 11 15 1014.9 1014.5 0.0
21/07:30pm 22.5 20.3 13.3 56 5.3 SSW 17 24 9 13 1014.5 1014.1 0.0
21/07:00pm 23.5 21.6 13.1 52 6.0 SSW 15 20 8 11 1014.1 1013.7 0.0
21/06:30pm 24.0 22.2 13.2 50 6.3 S 15 20 8 11 1014.1 1013.7 0.0
21/06:00pm 24.4 22.7 12.4 47 6.9 SW 13 28 7 15 1014.0 1013.6 0.0
21/05:30pm 24.2 21.9 11.9 46 7.0 SSW 15 22 8 12 1014.1 1013.7 0.0
21/05:00pm 24.1 22.5 11.4 45 7.2 SSE 11 20 6 11 1014.2 1013.8 0.0
21/04:30pm 23.7 20.9 11.4 46 6.9 S 17 28 9 15 1014.6 1014.2 0.0
21/04:00pm 23.6 21.5 11.0 45 7.1 S 13 20 7 11 1014.7 1014.3 0.0
21/03:30pm 23.8 21.9 11.8 47 6.8 S 13 22 7 12 1014.9 1014.5 0.0
21/03:00pm 23.1 21.5 11.5 48 6.5 SW 11 19 6 10 1015.0 1014.6 0.0
21/02:30pm 22.8 20.9 11.8 50 6.2 SSW 13 24 7 13 1015.3 1014.9 0.0
21/02:00pm 21.6 20.2 11.0 51 5.9 SW 9 20 5 11 1015.4 1015.0 0.0
21/01:30pm 20.9 19.3 11.5 55 5.2 SSW 11 17 6 9 1015.7 1015.3 0.0
21/01:00pm 20.9 18.6 10.4 51 5.7 SW 13 17 7 9 1015.8 1015.4 0.0
21/12:30pm 20.3 18.0 10.4 53 5.4 SE 13 20 7 11 1015.9 1015.5 0.0
21/12:00pm 19.4 17.3 9.9 54 5.1 SSW 11 15 6 8 1016.1 1015.7 0.0
21/11:30am 19.4 18.4 10.9 58 4.7 SSW 7 13 4 7 1016.3 1015.9 0.0
21/11:00am 17.6 15.6 10.0 61 4.0 SW 11 17 6 9 1016.4 1016.0 0.0
21/10:30am 17.8 16.4 10.9 64 3.7 SW 9 19 5 10 1016.4 1016.0 0.0
21/10:00am 16.5 15.2 11.4 72 2.8 SSW 9 15 5 8 1016.2 1015.8 0.0
21/09:30am 15.4 14.4 11.0 75 2.4 SW 7 11 4 6 1016.0 1015.6 0.0
21/09:00am 14.4 13.1 11.4 82 1.6 WNW 9 13 5 7 1016.0 1015.6 0.2
21/08:30am 13.0 11.9 11.9 93 0.6 NW 9 11 5 6 1015.6 1015.2 0.2
21/08:00am 11.1 11.4 10.9 99 0.1 CALM 0 0 0 0 1015.1 1014.7 0.2
21/07:30am 9.6 9.5 9.5 99 0.1 CALM 0 0 0 0 1014.7 1014.3 0.2
21/07:00am 7.9 7.4 7.8 99 0.0 CALM 0 0 0 0 1014.2 1013.8 0.2
21/06:30am 7.9 7.3 7.6 98 0.1 CALM 0 4 0 2 1013.8 1013.4 0.2
21/06:00am 7.7 6.0 7.4 98 0.1 NW 6 6 3 3 1013.5 1013.1 0.2
21/05:30am 7.8 6.8 7.5 98 0.1 W 2 7 1 4 1013.2 1012.8 0.2
21/05:00am 8.5 8.1 8.1 97 0.2 CALM 0 0 0 0 1013.1 1012.7 0.2
21/04:30am 8.4 7.5 7.8 96 0.3 WSW 2 6 1 3 1013.0 1012.6 0.2
21/04:00am 9.0 8.6 8.4 96 0.3 CALM 0 0 0 0 1012.7 1012.3 0.2
21/03:30am 9.8 9.2 9.0 95 0.4 WSW 2 7 1 4 1012.8 1012.4 0.2
21/03:00am 10.5 10.4 9.3 92 0.6 CALM 0 0 0 0 1012.7 1012.3 0.2
21/02:30am 11.6 11.7 10.3 92 0.7 CALM 0 0 0 0 1012.7 1012.3 0.2
21/02:00am 11.6 11.7 10.3 92 0.7 CALM 0 0 0 0 1012.8 1012.4 0.2
21/01:30am 11.4 11.5 10.1 92 0.7 CALM 0 0 0 0 1012.6 1012.1 0.2
21/01:00am 11.0 9.7 9.9 93 0.6 SW 7 7 4 4 1012.5 1012.0 0.2
21/12:30am 10.5 9.0 9.3 92 0.6 SW 7 9 4 5 1012.6 1012.1 0.2
21/12:00am 10.3 8.7 8.9 91 0.7 SSW 7 9 4 5 1012.2 1011.7 0.2
 
Date/Time
EDT
Temp
°C
App
Temp
°C
Dew
Point
°C
Rel
Hum
%
Delta-T
°C
Wind Press
QNH
hPa
Press
MSL
hPa
Rain since
9am
mm
Dir  Spd
km/h
Gust
km/h
Spd
kts
Gust
kts
20/11:30pm 10.7 9.2 9.0 89 0.8 SSW 7 9 4 5 1012.0 1011.5 0.2
20/11:00pm 10.9 8.9 8.8 87 1.0 SSW 9 11 5 6 1011.7 1011.3 0.2
20/10:30pm 11.3 9.3 8.7 84 1.3 SW 9 11 5 6 1011.2 1010.8 0.2
20/10:00pm 12.3 10.4 9.0 80 1.7 SSW 9 11 5 6 1010.8 1010.4 0.2
20/09:30pm 12.9 10.6 9.0 77 2.0 S 11 15 6 8 1010.5 1010.1 0.2
20/09:00pm 13.7 11.0 9.0 73 2.4 S 13 17 7 9 1010.2 1009.8 0.2
20/08:30pm 14.4 11.3 9.0 70 2.8 S 15 20 8 11 1010.0 1009.6 0.2
20/08:00pm 15.3 11.8 8.8 65 3.3 SSW 17 24 9 13 1009.6 1009.2 0.2
20/07:30pm 16.7 13.0 9.4 62 3.8 S 19 28 10 15 1009.2 1008.8 0.2
20/07:00pm 16.6 11.9 9.1 61 3.9 S 24 33 13 18 1008.5 1008.1 0.2
20/06:30pm 17.1 12.1 9.5 61 4.0 SSE 26 35 14 19 1008.3 1007.9 0.2
20/06:00pm 17.0 12.2 8.9 59 4.2 S 24 35 13 19 1008.2 1007.8 0.2
20/05:30pm 18.2 13.7 8.7 54 5.0 SSW 22 32 12 17 1007.9 1007.5 0.2
20/05:00pm 18.4 13.4 9.7 57 4.6 S 26 41 14 22 1007.5 1007.1 0.2
20/04:30pm 18.7 14.3 10.5 59 4.4 S 24 33 13 18 1007.1 1006.7 0.2
20/04:00pm 18.3 13.1 10.4 60 4.3 S 28 39 15 21 1006.9 1006.5 0.2
20/03:30pm 19.0 14.0 9.5 54 5.1 SSW 26 39 14 21 1006.8 1006.4 0.2

Other Formats:

Comma delimited format used in spreadsheet applications
http://www.bom.gov.au/fwo/IDV60801/IDV60801.95825.axf

JavaScript Object Notation format (JSON) in row-major order
http://www.bom.gov.au/fwo/IDV60801/IDV60801.95825.json